createdAt,value
2019-05-01T00:01:33.191Z,30.03
2019-05-01T00:04:09.660Z,28.33
2019-05-01T00:06:42.430Z,32.80
2019-05-01T00:09:12.031Z,32.27
2019-05-01T00:11:40.693Z,30.87
2019-05-01T00:14:09.973Z,32.87
2019-05-01T00:16:38.983Z,29.70
2019-05-01T00:19:07.743Z,24.37
2019-05-01T00:21:36.213Z,34.83
2019-05-01T00:24:04.882Z,24.97
2019-05-01T00:26:33.344Z,26.20
2019-05-01T00:29:01.845Z,27.30
2019-05-01T00:31:30.375Z,28.57
2019-05-01T00:33:58.844Z,24.53
2019-05-01T00:36:27.308Z,23.97
2019-05-01T00:38:55.955Z,27.83
2019-05-01T00:41:24.475Z,26.07
2019-05-01T00:43:52.918Z,29.00
2019-05-01T00:46:21.379Z,27.03
2019-05-01T00:48:49.840Z,30.40
2019-05-01T00:51:18.345Z,26.20
2019-05-01T00:53:46.797Z,23.70
2019-05-01T00:56:16.892Z,22.90
2019-05-01T00:58:58.989Z,24.30
2019-05-01T01:01:31.674Z,28.27
2019-05-01T01:04:00.570Z,21.80
2019-05-01T01:06:29.066Z,22.73
2019-05-01T01:08:57.532Z,21.63
2019-05-01T01:11:25.997Z,20.03
2019-05-01T01:13:54.463Z,24.10
2019-05-01T01:16:22.980Z,27.27
2019-05-01T01:18:51.434Z,22.90
2019-05-01T01:21:19.885Z,21.67
2019-05-01T01:23:48.817Z,19.00
2019-05-01T01:26:18.134Z,19.63
2019-05-01T01:28:46.691Z,18.53
2019-05-01T01:31:15.143Z,22.00
2019-05-01T01:33:43.662Z,21.20
2019-05-01T01:36:12.123Z,19.87
2019-05-01T01:38:40.721Z,23.00
2019-05-01T01:41:09.346Z,21.20
2019-05-01T01:43:45.478Z,18.63
2019-05-01T01:46:21.522Z,20.37
2019-05-01T01:48:50.146Z,20.60
2019-05-01T01:51:19.457Z,18.87
2019-05-01T01:53:49.337Z,18.73
2019-05-01T01:56:18.930Z,18.40
2019-05-01T01:58:47.540Z,21.70
2019-05-01T02:01:29.566Z,20.10
2019-05-01T02:04:17.525Z,23.50
2019-05-01T02:06:47.153Z,18.90
2019-05-01T02:09:16.226Z,23.20
2019-05-01T02:11:49.358Z,20.30
2019-05-01T02:14:17.933Z,17.50
2019-05-01T02:16:46.775Z,20.10
2019-05-01T02:19:15.439Z,14.93
2019-05-01T02:21:43.898Z,20.07
2019-05-01T02:24:12.432Z,19.57
2019-05-01T02:26:51.657Z,13.57
2019-05-01T02:29:25.625Z,13.53
2019-05-01T02:31:56.123Z,18.43
2019-05-01T02:34:25.999Z,14.60
2019-05-01T02:36:57.161Z,15.17
2019-05-01T02:39:27.335Z,12.17
2019-05-01T02:41:59.059Z,13.80
2019-05-01T02:44:36.579Z,17.13
2019-05-01T02:47:08.428Z,18.43
2019-05-01T02:49:55.046Z,12.37
2019-05-01T02:52:43.924Z,15.60
2019-05-01T02:55:15.414Z,15.53
2019-05-01T02:57:45.006Z,13.53
2019-05-01T03:00:14.012Z,13.20
2019-05-01T03:02:43.020Z,13.63
2019-05-01T03:05:11.620Z,10.80
2019-05-01T03:07:40.977Z,11.17
2019-05-01T03:10:11.198Z,13.07
2019-05-01T03:12:42.113Z,14.10
2019-05-01T03:15:12.868Z,9.70
2019-05-01T03:17:56.693Z,15.97
2019-05-01T03:20:29.917Z,13.03
2019-05-01T03:23:12.572Z,14.27
2019-05-01T03:25:41.259Z,9.93
2019-05-01T03:28:09.779Z,8.70
2019-05-01T03:30:38.756Z,14.00
2019-05-01T03:33:07.815Z,11.37
2019-05-01T03:35:36.848Z,19.87
2019-05-01T03:38:06.053Z,10.70
2019-05-01T03:40:35.045Z,11.50
2019-05-01T03:43:04.041Z,15.17
2019-05-01T03:45:34.260Z,10.70
2019-05-01T03:48:03.634Z,21.23
2019-05-01T03:50:32.296Z,11.77
2019-05-01T03:53:01.138Z,12.63
2019-05-01T03:55:29.798Z,12.50
2019-05-01T03:57:59.171Z,9.47
2019-05-01T04:00:38.683Z,12.40
2019-05-01T04:03:17.661Z,11.90
2019-05-01T04:05:46.453Z,11.90
2019-05-01T04:08:14.917Z,14.50
2019-05-01T04:10:43.713Z,11.97
2019-05-01T04:13:12.405Z,11.70
2019-05-01T04:15:41.710Z,12.50
2019-05-01T04:18:11.093Z,12.13
2019-05-01T04:20:39.956Z,9.67
2019-05-01T04:23:08.961Z,16.37
2019-05-01T04:25:37.923Z,12.63
2019-05-01T04:28:25.225Z,15.20
2019-05-01T04:31:11.768Z,13.63
2019-05-01T04:33:41.927Z,15.97
2019-05-01T04:36:12.389Z,12.13
2019-05-01T04:38:40.959Z,14.20
2019-05-01T04:41:09.682Z,12.37
2019-05-01T04:43:38.684Z,10.50
2019-05-01T04:46:07.486Z,10.83
2019-05-01T04:48:36.383Z,13.17
2019-05-01T04:51:05.645Z,11.83
2019-05-01T04:53:35.051Z,13.83
2019-05-01T04:56:04.035Z,11.70
2019-05-01T04:58:32.720Z,12.80
2019-05-01T05:01:01.657Z,9.80
2019-05-01T05:03:30.654Z,12.30
2019-05-01T05:06:00.021Z,12.67
2019-05-01T05:08:28.471Z,15.57
2019-05-01T05:10:58.698Z,13.23
2019-05-01T05:13:28.870Z,16.10
2019-05-01T05:16:00.083Z,12.97
2019-05-01T05:18:29.820Z,11.57
2019-05-01T05:20:59.939Z,9.63
2019-05-01T05:23:30.437Z,12.87
2019-05-01T05:26:00.642Z,11.67
2019-05-01T05:28:31.384Z,11.30
2019-05-01T05:31:02.183Z,11.90
2019-05-01T05:33:33.341Z,9.97
2019-05-01T05:36:04.502Z,10.93
2019-05-01T05:38:41.540Z,9.80
2019-05-01T05:41:11.068Z,10.87
2019-05-01T05:43:39.853Z,10.50
2019-05-01T05:46:08.790Z,11.57
2019-05-01T05:48:37.549Z,9.13
2019-05-01T05:51:18.212Z,10.63
2019-05-01T05:53:50.915Z,10.10
2019-05-01T05:56:21.688Z,12.67
2019-05-01T05:58:54.415Z,14.33
2019-05-01T06:01:35.575Z,8.70
2019-05-01T06:04:14.667Z,9.73
2019-05-01T06:06:46.680Z,10.40
2019-05-01T06:09:18.467Z,8.70
2019-05-01T06:11:55.013Z,9.63
2019-05-01T06:14:39.877Z,9.63
2019-05-01T06:17:16.007Z,11.30
2019-05-01T06:19:52.323Z,14.90
2019-05-01T06:22:36.139Z,11.53
2019-05-01T06:25:21.091Z,18.97
2019-05-01T06:27:38.640Z,13.97
2019-05-01T06:30:11.126Z,8.60
2019-05-01T06:32:41.519Z,9.20
2019-05-01T06:35:10.123Z,9.80
2019-05-01T06:38:00.637Z,7.70
2019-05-01T06:40:40.522Z,10.07
2019-05-01T06:43:38.939Z,9.60
2019-05-01T06:46:11.724Z,11.10
2019-05-01T06:48:48.874Z,10.07
2019-05-01T06:51:35.380Z,11.33
2019-05-01T06:54:11.510Z,10.07
2019-05-01T06:56:38.788Z,10.50
2019-05-01T06:59:09.008Z,11.67
2019-05-01T07:01:38.055Z,10.50
2019-05-01T07:04:07.559Z,10.27
2019-05-01T07:06:36.688Z,12.93
2019-05-01T07:09:11.774Z,11.43
2019-05-01T07:11:42.301Z,8.40
2019-05-01T07:14:11.099Z,8.20
2019-05-01T07:16:40.505Z,10.17
2019-05-01T07:19:09.807Z,11.23
2019-05-01T07:21:38.544Z,9.13
2019-05-01T07:24:07.061Z,7.83
2019-05-01T07:26:35.690Z,9.77
2019-05-01T07:29:10.000Z,10.20
2019-05-01T07:31:39.701Z,8.00
2019-05-01T07:34:16.407Z,13.93
2019-05-01T07:36:38.743Z,9.63
2019-05-01T07:39:09.934Z,14.63
2019-05-01T07:41:39.022Z,9.17
2019-05-01T07:44:09.821Z,6.93
2019-05-01T07:46:40.263Z,8.83
2019-05-01T07:49:12.935Z,9.90
2019-05-01T07:51:42.353Z,9.43
2019-05-01T07:54:11.442Z,7.93
2019-05-01T07:56:40.323Z,10.37
2019-05-01T07:59:09.041Z,11.40
2019-05-01T08:01:39.156Z,11.23
2019-05-01T08:04:07.955Z,8.77
2019-05-01T08:06:36.411Z,11.77
2019-05-01T08:09:06.673Z,8.87
2019-05-01T08:11:39.137Z,12.60
2019-05-01T08:14:07.545Z,9.93
2019-05-01T08:16:37.864Z,12.63
2019-05-01T08:19:07.632Z,11.77
2019-05-01T08:21:40.445Z,7.73
2019-05-01T08:24:08.921Z,7.47
2019-05-01T08:26:39.769Z,9.07
2019-05-01T08:29:21.352Z,12.23
2019-05-01T08:31:51.509Z,10.83
2019-05-01T08:34:30.468Z,9.33
2019-05-01T08:36:59.007Z,9.27
2019-05-01T08:39:27.508Z,5.63
2019-05-01T08:41:56.340Z,10.90
2019-05-01T08:44:29.548Z,8.30
2019-05-01T08:47:13.704Z,6.63
2019-05-01T08:49:50.880Z,6.03
2019-05-01T08:52:19.666Z,6.30
2019-05-01T08:54:48.135Z,5.80
2019-05-01T08:57:16.663Z,8.07
2019-05-01T08:59:45.180Z,7.50
2019-05-01T09:02:13.717Z,7.80
2019-05-01T09:04:42.183Z,11.00
2019-05-01T09:07:14.739Z,6.20
2019-05-01T09:09:45.612Z,7.00
2019-05-01T09:12:12.035Z,7.80
2019-05-01T09:14:41.249Z,5.40
2019-05-01T09:17:09.695Z,6.07
2019-05-01T09:19:38.182Z,4.40
2019-05-01T09:22:07.175Z,5.53
2019-05-01T09:24:35.710Z,6.37
2019-05-01T09:27:14.993Z,8.23
2019-05-01T09:29:46.770Z,9.03
2019-05-01T09:32:15.417Z,7.47
2019-05-01T09:34:43.883Z,9.97
2019-05-01T09:37:12.439Z,5.70
2019-05-01T09:39:41.059Z,10.23
2019-05-01T09:42:10.123Z,5.60
2019-05-01T09:44:38.671Z,7.70
2019-05-01T09:47:07.475Z,8.03
2019-05-01T09:49:36.166Z,8.43
2019-05-01T09:52:24.579Z,7.53
2019-05-01T09:54:55.149Z,4.90
2019-05-01T09:57:23.674Z,6.27
2019-05-01T09:59:52.215Z,6.23
2019-05-01T10:02:20.678Z,6.63
2019-05-01T10:04:49.166Z,6.40
2019-05-01T10:07:17.631Z,5.60
2019-05-01T10:09:47.373Z,8.37
2019-05-01T10:12:16.390Z,8.10
2019-05-01T10:14:44.916Z,6.00
2019-05-01T10:17:13.624Z,10.70
2019-05-01T10:19:42.366Z,4.63
2019-05-01T10:22:10.832Z,6.63
2019-05-01T10:24:39.434Z,10.07
2019-05-01T10:27:09.842Z,7.53
2019-05-01T10:29:57.046Z,6.23
2019-05-01T10:32:34.271Z,5.00
2019-05-01T10:35:04.366Z,7.53
2019-05-01T10:37:33.861Z,6.87
2019-05-01T10:40:04.016Z,7.63
2019-05-01T10:42:32.538Z,8.80
2019-05-01T10:45:01.092Z,7.57
2019-05-01T10:47:29.620Z,5.83
2019-05-01T10:49:58.156Z,11.57
2019-05-01T10:52:26.615Z,5.97
2019-05-01T10:54:55.064Z,5.63
2019-05-01T10:57:23.527Z,6.03
2019-05-01T10:59:51.986Z,7.03
2019-05-01T11:02:20.444Z,10.07
2019-05-01T11:04:48.964Z,5.33
2019-05-01T11:07:17.455Z,6.47
2019-05-01T11:09:46.034Z,4.90
2019-05-01T11:12:14.540Z,6.80
2019-05-01T11:14:42.987Z,5.57
2019-05-01T11:17:11.439Z,6.43
2019-05-01T11:19:39.988Z,5.90
2019-05-01T11:22:08.574Z,9.17
2019-05-01T11:24:37.073Z,7.43
2019-05-01T11:27:06.024Z,6.93
2019-05-01T11:29:34.487Z,6.97
2019-05-01T11:32:22.600Z,5.47
2019-05-01T11:35:08.875Z,7.27
2019-05-01T11:37:51.335Z,10.60
2019-05-01T11:40:22.039Z,10.70
2019-05-01T11:42:50.550Z,4.47
2019-05-01T11:45:20.170Z,7.37
2019-05-01T11:47:48.635Z,5.00
2019-05-01T11:50:17.091Z,4.53
2019-05-01T11:52:45.578Z,6.07
2019-05-01T11:55:14.450Z,6.37
2019-05-01T11:57:42.993Z,5.20
2019-05-01T12:00:14.030Z,6.87
2019-05-01T12:02:42.533Z,5.67
2019-05-01T12:05:11.155Z,7.67
2019-05-01T12:07:39.690Z,5.53
2019-05-01T12:10:08.559Z,6.77
2019-05-01T12:12:37.031Z,8.15
2019-05-01T12:15:07.385Z,5.80
2019-05-01T12:17:51.493Z,6.58
2019-05-01T12:20:21.572Z,5.10
2019-05-01T12:22:51.546Z,6.20
2019-05-01T12:25:39.674Z,4.12
2019-05-01T12:28:08.126Z,5.17
2019-05-01T12:30:36.587Z,6.80
2019-05-01T12:33:05.543Z,5.80
2019-05-01T12:35:33.992Z,6.50
2019-05-01T12:38:04.327Z,6.80
2019-05-01T12:40:32.858Z,5.80
2019-05-01T12:43:01.693Z,7.57
2019-05-01T12:45:30.230Z,7.20
2019-05-01T12:48:00.659Z,5.77
2019-05-01T12:50:29.118Z,4.27
2019-05-01T12:52:59.200Z,6.60
2019-05-01T12:55:45.715Z,4.55
2019-05-01T12:58:14.163Z,4.87
2019-05-01T13:00:46.909Z,5.17
2019-05-01T13:03:15.839Z,8.28
2019-05-01T13:05:44.370Z,3.35
2019-05-01T13:08:12.896Z,6.50
2019-05-01T13:10:41.538Z,6.03
2019-05-01T13:13:11.255Z,4.80
2019-05-01T13:15:40.278Z,5.85
2019-05-01T13:18:08.907Z,3.08
2019-05-01T13:20:37.433Z,4.72
2019-05-01T13:23:05.885Z,2.70
2019-05-01T13:25:34.345Z,3.52
2019-05-01T13:28:10.298Z,6.20
2019-05-01T13:30:58.387Z,4.60
2019-05-01T13:33:26.857Z,4.80
2019-05-01T13:36:08.080Z,3.87
2019-05-01T13:38:36.531Z,4.95
2019-05-01T13:41:05.050Z,6.15
2019-05-01T13:43:33.616Z,3.90
2019-05-01T13:46:02.139Z,4.60
2019-05-01T13:48:30.601Z,7.28
2019-05-01T13:50:59.211Z,6.75
2019-05-01T13:53:27.786Z,4.73
2019-05-01T13:55:56.314Z,3.83
2019-05-01T13:58:24.827Z,5.17
2019-05-01T14:00:53.432Z,8.07
2019-05-01T14:03:21.960Z,5.73
2019-05-01T14:05:50.501Z,3.60
2019-05-01T14:08:19.101Z,5.93
2019-05-01T14:10:47.586Z,10.10
2019-05-01T14:13:16.051Z,6.10
2019-05-01T14:15:44.574Z,5.50
2019-05-01T14:18:13.039Z,7.77
2019-05-01T14:20:43.120Z,4.90
2019-05-01T14:23:13.241Z,4.00
2019-05-01T14:25:59.771Z,4.93
2019-05-01T14:28:28.307Z,4.23
2019-05-01T14:30:56.775Z,5.50
2019-05-01T14:33:25.235Z,7.87
2019-05-01T14:35:53.793Z,5.07
2019-05-01T14:38:22.249Z,5.97
2019-05-01T14:40:50.704Z,5.83
2019-05-01T14:43:19.229Z,7.17
2019-05-01T14:45:47.719Z,3.40
2019-05-01T14:48:16.165Z,4.43
2019-05-01T14:50:45.206Z,6.53
2019-05-01T14:53:13.711Z,5.67
2019-05-01T14:55:42.255Z,13.70
2019-05-01T14:58:18.102Z,5.77
2019-05-01T15:00:46.586Z,8.90
2019-05-01T15:03:15.082Z,5.33
2019-05-01T15:05:43.534Z,7.50
2019-05-01T15:08:11.987Z,5.80
2019-05-01T15:10:40.451Z,6.43
2019-05-01T15:13:13.177Z,5.93
2019-05-01T15:16:01.677Z,4.33
2019-05-01T15:18:31.849Z,7.40
2019-05-01T15:21:00.298Z,6.00
2019-05-01T15:23:28.774Z,6.30
2019-05-01T15:25:57.294Z,6.17
2019-05-01T15:28:25.760Z,7.07
2019-05-01T15:30:54.282Z,4.87
2019-05-01T15:33:22.766Z,3.17
2019-05-01T15:35:51.212Z,5.43
2019-05-01T15:38:19.671Z,6.83
2019-05-01T15:40:58.355Z,7.53
2019-05-01T15:43:33.974Z,5.17
2019-05-01T15:46:02.444Z,6.07
2019-05-01T15:48:30.970Z,5.33
2019-05-01T15:50:59.436Z,9.30
2019-05-01T15:53:27.899Z,11.97
2019-05-01T15:55:56.408Z,4.60
2019-05-01T15:58:24.934Z,7.33
2019-05-01T16:00:53.390Z,6.37
2019-05-01T16:03:21.850Z,4.87
2019-05-01T16:05:50.357Z,8.27
2019-05-01T16:08:18.805Z,9.07
2019-05-01T16:11:06.862Z,10.37
2019-05-01T16:13:47.146Z,7.23
2019-05-01T16:16:15.610Z,7.70
2019-05-01T16:18:44.072Z,5.33
2019-05-01T16:21:12.534Z,6.10
2019-05-01T16:23:40.995Z,6.73
2019-05-01T16:26:09.793Z,6.47
2019-05-01T16:28:38.705Z,9.80
2019-05-01T16:31:07.206Z,5.90
2019-05-01T16:33:35.723Z,6.63
2019-05-01T16:36:04.247Z,7.60
2019-05-01T16:38:34.385Z,14.50
2019-05-01T16:41:04.491Z,6.77
2019-05-01T16:43:33.010Z,11.57
2019-05-01T16:46:01.465Z,8.20
2019-05-01T16:48:29.918Z,6.93
2019-05-01T16:50:58.405Z,9.63
2019-05-01T16:53:26.867Z,6.50
2019-05-01T16:55:55.313Z,7.57
2019-05-01T16:58:24.157Z,10.07
2019-05-01T17:01:00.036Z,7.67
2019-05-01T17:03:33.058Z,7.23
2019-05-01T17:06:03.321Z,8.97
2019-05-01T17:08:36.451Z,8.70
2019-05-01T17:11:04.583Z,7.90
2019-05-01T17:13:33.130Z,10.83
2019-05-01T17:16:01.732Z,7.97
2019-05-01T17:18:30.196Z,8.67
2019-05-01T17:20:58.659Z,7.93
2019-05-01T17:23:27.223Z,5.87
2019-05-01T17:25:55.759Z,9.53
2019-05-01T17:28:24.219Z,7.90
2019-05-01T17:30:54.310Z,9.07
2019-05-01T17:33:22.766Z,11.37
2019-05-01T17:35:51.222Z,9.83
2019-05-01T17:38:19.834Z,14.33
2019-05-01T17:40:51.952Z,7.40
2019-05-01T17:43:18.590Z,12.60
2019-05-01T17:45:47.119Z,8.03
2019-05-01T17:48:15.683Z,10.83
2019-05-01T17:50:44.253Z,9.33
2019-05-01T17:53:12.742Z,11.63
2019-05-01T17:55:41.203Z,6.30
2019-05-01T17:58:09.649Z,8.60
2019-05-01T18:00:39.855Z,20.07
2019-05-01T18:03:15.618Z,18.93
2019-05-01T18:05:45.744Z,16.37
2019-05-01T18:08:14.270Z,16.23
2019-05-01T18:10:42.766Z,12.43
2019-05-01T18:13:11.230Z,10.23
2019-05-01T18:15:39.688Z,14.83
2019-05-01T18:18:10.745Z,15.07
2019-05-01T18:20:38.335Z,13.03
2019-05-01T18:23:14.219Z,16.13
2019-05-01T18:25:50.162Z,19.33
2019-05-01T18:28:30.008Z,17.90
2019-05-01T18:30:58.176Z,16.87
2019-05-01T18:33:27.216Z,18.80
2019-05-01T18:35:56.345Z,26.70
2019-05-01T18:38:26.596Z,133.97
2019-05-01T18:41:15.713Z,83.70
2019-05-01T18:43:44.311Z,64.10
2019-05-01T18:46:14.113Z,42.73
2019-05-01T18:49:01.924Z,20.83
2019-05-01T18:51:30.446Z,20.17
2019-05-01T18:53:59.279Z,33.87
2019-05-01T18:56:27.764Z,59.10
2019-05-01T18:58:56.389Z,49.00
2019-05-01T19:01:24.860Z,45.30
2019-05-01T19:03:53.322Z,44.13
2019-05-01T19:06:21.802Z,41.07
2019-05-01T19:08:50.818Z,27.27
2019-05-01T19:11:19.377Z,25.23
2019-05-01T19:13:47.961Z,22.50
2019-05-01T19:16:16.503Z,27.20
2019-05-01T19:18:45.023Z,24.20
2019-05-01T19:21:13.625Z,20.17
2019-05-01T19:23:42.088Z,17.20
2019-05-01T19:26:12.626Z,19.20
2019-05-01T19:28:41.559Z,22.70
2019-05-01T19:31:10.015Z,16.73
2019-05-01T19:33:41.559Z,16.50
2019-05-01T19:36:10.324Z,13.57
2019-05-01T19:38:38.985Z,13.67
2019-05-01T19:41:08.939Z,11.27
2019-05-01T19:43:40.572Z,10.83
2019-05-01T19:46:07.795Z,11.37
2019-05-01T19:48:36.314Z,13.17
2019-05-01T19:51:05.309Z,16.40
2019-05-01T19:53:33.848Z,11.63
2019-05-01T19:56:22.736Z,11.70
2019-05-01T19:59:03.774Z,15.07
2019-05-01T20:01:32.254Z,14.57
2019-05-01T20:04:00.788Z,13.60
2019-05-01T20:06:29.420Z,15.63
2019-05-01T20:08:57.939Z,14.43
2019-05-01T20:11:26.480Z,14.03
2019-05-01T20:13:54.934Z,12.47
2019-05-01T20:16:23.425Z,12.20
2019-05-01T20:18:52.258Z,13.23
2019-05-01T20:21:20.716Z,12.23
2019-05-01T20:23:49.222Z,11.03
2019-05-01T20:26:17.763Z,12.60
2019-05-01T20:28:47.127Z,10.20
2019-05-01T20:31:17.723Z,13.23
2019-05-01T20:33:46.190Z,27.40
2019-05-01T20:36:14.646Z,16.83
2019-05-01T20:38:43.173Z,16.13
2019-05-01T20:41:15.891Z,10.80
2019-05-01T20:43:43.330Z,16.67
2019-05-01T20:46:12.232Z,12.87
2019-05-01T20:48:40.866Z,11.23
2019-05-01T20:51:09.387Z,20.47
2019-05-01T20:53:37.849Z,55.27
2019-05-01T20:56:10.502Z,34.13
2019-05-01T20:58:41.986Z,31.33
2019-05-01T21:01:10.455Z,50.87
2019-05-01T21:03:40.654Z,43.03
2019-05-01T21:06:10.800Z,84.70
2019-05-01T21:08:43.668Z,59.97
2019-05-01T21:11:13.774Z,34.93
2019-05-01T21:13:42.233Z,35.73
2019-05-01T21:16:10.741Z,21.77
2019-05-01T21:18:39.224Z,34.20
2019-05-01T21:21:07.701Z,22.43
2019-05-01T21:23:36.201Z,28.13
2019-05-01T21:26:04.928Z,22.50
2019-05-01T21:28:34.085Z,15.13
2019-05-01T21:31:03.836Z,15.57
2019-05-01T21:33:33.957Z,16.10
2019-05-01T21:36:04.883Z,16.33
2019-05-01T21:38:32.977Z,14.33
2019-05-01T21:41:02.779Z,14.80
2019-05-01T21:43:33.207Z,14.60
2019-05-01T21:46:03.782Z,12.23
2019-05-01T21:48:33.429Z,15.47
2019-05-01T21:51:06.973Z,21.60
2019-05-01T21:53:32.867Z,15.17
2019-05-01T21:56:02.234Z,18.80
2019-05-01T21:58:33.999Z,15.30
2019-05-01T22:01:03.007Z,15.47
2019-05-01T22:03:31.482Z,15.70
2019-05-01T22:05:59.937Z,18.43
2019-05-01T22:08:28.400Z,20.07
2019-05-01T22:10:57.688Z,16.80
2019-05-01T22:13:27.046Z,16.90
2019-05-01T22:16:09.054Z,19.47
2019-05-01T22:18:41.850Z,16.43
2019-05-01T22:21:30.382Z,16.63
2019-05-01T22:24:06.450Z,21.00
2019-05-01T22:26:54.436Z,14.80
2019-05-01T22:29:27.167Z,20.40
2019-05-01T22:31:57.481Z,21.93
2019-05-01T22:34:34.973Z,23.67
2019-05-01T22:37:03.577Z,22.73
2019-05-01T22:39:33.615Z,19.73
2019-05-01T22:42:02.071Z,16.07
2019-05-01T22:44:30.526Z,16.87
2019-05-01T22:46:59.115Z,16.37
2019-05-01T22:49:27.646Z,18.80
2019-05-01T22:51:56.100Z,20.20
2019-05-01T22:54:24.601Z,14.70
2019-05-01T22:57:13.330Z,17.80
2019-05-01T22:59:41.827Z,16.70
2019-05-01T23:02:11.934Z,17.73
2019-05-01T23:04:40.589Z,16.90
2019-05-01T23:07:11.801Z,15.10
2019-05-01T23:09:39.577Z,16.10
2019-05-01T23:12:08.180Z,14.33
2019-05-01T23:14:36.827Z,19.10
2019-05-01T23:17:07.003Z,21.93
2019-05-01T23:19:35.466Z,16.60
2019-05-01T23:22:05.261Z,17.83
2019-05-01T23:24:33.842Z,20.60
2019-05-01T23:27:02.402Z,17.27
2019-05-01T23:29:30.859Z,14.77
2019-05-01T23:32:00.194Z,17.20
2019-05-01T23:34:28.679Z,19.53
2019-05-01T23:36:57.148Z,17.47
2019-05-01T23:39:25.763Z,15.40
2019-05-01T23:41:54.248Z,18.90
2019-05-01T23:44:22.721Z,20.03
2019-05-01T23:46:51.249Z,20.97
2019-05-01T23:49:19.716Z,20.40
2019-05-01T23:51:48.166Z,18.73
2019-05-01T23:54:16.655Z,18.03
2019-05-01T23:56:45.113Z,17.40
2019-05-01T23:59:13.752Z,17.67
